Time;durP1;ratioP1;P1;durP2;ratioP2;P2;SDS_P1;SDS_P2;PMS_P1;PMS_P2;Temp;Humidity;BMP_temperature;BMP_pressure;BME280_temperature;BME280_humidity;BME280_pressure;Samples;Min_cycle;Max_cycle;Signal;HPM_P1;HPM_P2
2023/02/27 00:01:58;;;;;;;6.13;4.20;;;22.70;39.00;;;;;;6269548;27;80672;-52
2023/02/27 00:04:59;;;;;;;5.07;3.33;;;22.60;38.90;;;;;;6268369;27;81928;-51
2023/02/27 00:08:00;;;;;;;6.07;3.55;;;22.60;38.90;;;;;;6264594;27;80460;-53
2023/02/27 00:11:00;;;;;;;7.53;3.63;;;22.60;38.70;;;;;;6280514;27;80524;-51
2023/02/27 00:14:01;;;;;;;7.97;3.83;;;22.60;38.70;;;;;;6266542;27;81067;-54
2023/02/27 00:17:01;;;;;;;6.05;3.78;;;22.60;38.60;;;;;;6280201;27;81871;-53
2023/02/27 00:20:02;;;;;;;8.07;3.97;;;22.60;38.90;;;;;;6278260;27;80324;-56
2023/02/27 00:23:03;;;;;;;6.70;3.83;;;22.60;38.80;;;;;;6275376;27;80209;-56
2023/02/27 00:26:03;;;;;;;6.43;3.70;;;22.60;39.10;;;;;;6268076;27;80734;-52
2023/02/27 00:29:04;;;;;;;7.00;4.28;;;22.60;39.30;;;;;;6269707;27;80399;-60
2023/02/27 00:32:04;;;;;;;7.22;3.53;;;22.60;39.30;;;;;;6276125;27;80539;-61
2023/02/27 00:35:05;;;;;;;6.53;4.00;;;22.60;39.20;;;;;;6250060;28;83205;-60
2023/02/27 00:38:06;;;;;;;7.20;4.10;;;22.60;39.10;;;;;;6277856;27;80524;-60
2023/02/27 00:41:06;;;;;;;7.15;3.55;;;22.50;39.20;;;;;;6282745;27;80774;-59
2023/02/27 00:44:07;;;;;;;8.48;4.18;;;22.50;39.00;;;;;;6274221;27;80234;-61
2023/02/27 00:47:10;;;;;;;7.75;4.25;;;22.50;38.90;;;;;;6273796;27;80302;-61
2023/02/27 00:50:13;;;;;;;8.18;4.57;;;22.50;39.10;;;;;;6270643;27;80252;-62
2023/02/27 00:53:13;;;;;;;8.68;4.10;;;22.60;39.00;;;;;;6246245;27;83313;-61
2023/02/27 00:56:14;;;;;;;9.48;4.95;;;22.50;39.30;;;;;;6267785;27;80448;-62
2023/02/27 00:59:14;;;;;;;6.82;4.00;;;22.50;39.30;;;;;;6266646;27;80731;-62
2023/02/27 01:02:15;;;;;;;6.93;4.43;;;22.50;39.20;;;;;;6235328;27;83490;-62
2023/02/27 01:05:16;;;;;;;8.90;4.90;;;22.50;39.10;;;;;;6239431;27;83452;-61
2023/02/27 01:08:16;;;;;;;8.02;4.78;;;22.50;39.20;;;;;;6279411;27;81304;-62
2023/02/27 01:11:17;;;;;;;7.47;4.60;;;22.50;39.00;;;;;;6276432;27;80381;-63
2023/02/27 01:14:17;;;;;;;7.90;4.55;;;22.50;39.20;;;;;;6249076;27;80509;-62
2023/02/27 01:17:19;;;;;;;9.65;4.90;;;22.50;39.10;;;;;;6248305;27;83323;-61
2023/02/27 01:20:20;;;;;;;9.05;4.68;;;22.50;39.00;;;;;;6265129;27;80502;-62
2023/02/27 01:23:21;;;;;;;7.78;4.35;;;22.50;39.20;;;;;;6260614;27;80437;-62
2023/02/27 01:26:23;;;;;;;7.28;4.05;;;22.50;39.60;;;;;;6265045;27;81182;-64
2023/02/27 01:29:23;;;;;;;9.00;4.22;;;22.50;39.40;;;;;;6278379;27;80518;-65
2023/02/27 01:32:24;;;;;;;8.23;4.30;;;22.50;39.50;;;;;;6260862;27;80317;-63
2023/02/27 01:35:24;;;;;;;7.75;4.00;;;22.50;39.40;;;;;;6274933;27;80441;-63
2023/02/27 01:38:25;;;;;;;8.57;4.57;;;22.50;39.30;;;;;;6277134;27;80477;-63
2023/02/27 01:41:26;;;;;;;9.30;3.97;;;22.50;39.40;;;;;;6282430;27;80880;-64
2023/02/27 01:44:28;;;;;;;8.57;4.53;;;22.50;39.30;;;;;;6258711;27;83213;-60
2023/02/27 01:47:28;;;;;;;6.43;3.95;;;22.50;39.30;;;;;;6259037;27;82243;-60
2023/02/27 01:50:29;;;;;;;8.43;4.50;;;22.50;39.40;;;;;;6275404;27;80482;-63
2023/02/27 01:53:29;;;;;;;6.35;4.28;;;22.50;39.30;;;;;;6255021;27;81531;-62
2023/02/27 01:56:30;;;;;;;8.75;4.55;;;22.50;39.20;;;;;;6271752;27;80825;-62
2023/02/27 01:59:31;;;;;;;7.88;3.80;;;22.50;39.60;;;;;;6244634;27;81398;-61
2023/02/27 02:02:31;;;;;;;6.30;3.85;;;22.50;39.30;;;;;;6232464;28;81821;-65
2023/02/27 02:05:32;;;;;;;6.72;3.78;;;22.40;39.50;;;;;;6264090;27;82248;-64
2023/02/27 02:08:32;;;;;;;8.05;3.85;;;22.40;39.40;;;;;;6272059;27;87431;-66
2023/02/27 02:11:33;;;;;;;7.85;3.88;;;22.40;39.30;;;;;;6252182;27;82024;-65
2023/02/27 02:14:33;;;;;;;5.97;3.38;;;22.40;39.30;;;;;;6253662;27;80570;-65
2023/02/27 02:17:38;;;;;;;5.07;3.50;;;22.40;39.40;;;;;;6251071;27;83635;-65
2023/02/27 02:20:39;;;;;;;6.65;3.90;;;22.40;39.30;;;;;;6277608;27;80354;-63
2023/02/27 02:23:39;;;;;;;6.18;3.47;;;22.40;39.30;;;;;;6277667;27;80222;-65
2023/02/27 02:26:40;;;;;;;6.45;3.75;;;22.40;39.30;;;;;;6258297;27;83565;-65
2023/02/27 02:29:41;;;;;;;6.43;3.35;;;22.40;39.30;;;;;;6275908;27;81775;-64
2023/02/27 02:32:41;;;;;;;6.63;3.88;;;22.40;39.20;;;;;;6240726;27;83752;-66
2023/02/27 02:35:42;;;;;;;5.18;3.03;;;22.40;39.10;;;;;;6261189;27;80589;-67
2023/02/27 02:38:42;;;;;;;6.93;3.90;;;22.50;39.00;;;;;;6268400;27;80320;-65
2023/02/27 02:41:43;;;;;;;7.95;3.67;;;22.40;39.00;;;;;;6269574;27;81621;-64
2023/02/27 02:44:43;;;;;;;7.32;3.33;;;22.50;39.00;;;;;;6265062;27;81806;-64
2023/02/27 02:47:44;;;;;;;6.25;3.58;;;22.50;39.50;;;;;;6258719;27;83952;-65
2023/02/27 02:50:44;;;;;;;5.80;3.47;;;22.50;39.30;;;;;;6276576;27;81545;-64
2023/02/27 02:53:45;;;;;;;7.35;2.88;;;22.50;39.20;;;;;;6271174;27;80797;-64
2023/02/27 02:56:45;;;;;;;6.30;3.05;;;22.40;39.50;;;;;;6270893;27;80912;-63
2023/02/27 02:59:46;;;;;;;6.35;3.05;;;22.40;39.50;;;;;;6276157;27;82579;-62
2023/02/27 03:02:46;;;;;;;5.97;3.15;;;22.50;39.60;;;;;;6263589;27;80529;-62
2023/02/27 03:05:47;;;;;;;5.60;3.05;;;22.50;39.60;;;;;;6236208;28;83494;-63
2023/02/27 03:08:47;;;;;;;4.38;2.78;;;22.50;39.60;;;;;;6236998;27;83192;-62
2023/02/27 03:11:48;;;;;;;6.68;3.53;;;22.50;39.60;;;;;;6268644;27;80716;-62
2023/02/27 03:14:49;;;;;;;5.68;3.10;;;22.50;39.50;;;;;;6254233;27;82969;-62
2023/02/27 03:17:49;;;;;;;4.90;2.90;;;22.40;39.80;;;;;;6245945;27;83831;-64
2023/02/27 03:20:50;;;;;;;5.18;2.72;;;22.40;40.00;;;;;;6244435;27;83624;-66
2023/02/27 03:23:52;;;;;;;4.80;2.60;;;22.40;40.00;;;;;;6276906;27;80458;-67
2023/02/27 03:26:53;;;;;;;5.25;2.60;;;22.40;39.80;;;;;;6257261;27;83518;-67
2023/02/27 03:29:54;;;;;;;4.53;2.35;;;22.40;40.10;;;;;;6256873;27;82619;-62
2023/02/27 03:32:56;;;;;;;5.47;2.80;;;22.40;40.20;;;;;;6256724;27;82289;-61
2023/02/27 03:35:57;;;;;;;4.38;2.70;;;22.40;40.10;;;;;;6256531;27;83763;-64
2023/02/27 03:38:58;;;;;;;5.68;2.60;;;22.40;40.10;;;;;;6259517;27;83463;-64
2023/02/27 03:41:58;;;;;;;3.67;2.35;;;22.40;39.90;;;;;;6260400;27;83052;-64
2023/02/27 03:45:19;;;;;;;2.10;1.83;;;22.40;39.80;;;;;;6270404;27;85664;-63
2023/02/27 03:48:20;;;;;;;5.32;2.75;;;22.40;39.90;;;;;;6256285;27;82717;-64
2023/02/27 03:51:20;;;;;;;4.68;2.13;;;22.40;39.50;;;;;;6257856;27;82211;-59
2023/02/27 03:54:21;;;;;;;3.83;2.45;;;22.40;39.70;;;;;;6255403;27;83980;-59
2023/02/27 03:57:21;;;;;;;3.47;2.00;;;22.50;39.70;;;;;;6256023;27;83566;-59
2023/02/27 04:00:22;;;;;;;4.72;2.25;;;22.40;39.50;;;;;;6255332;27;83357;-59
2023/02/27 04:03:23;;;;;;;5.80;2.42;;;22.40;39.50;;;;;;6256957;27;81852;-60
2023/02/27 04:09:42;;;;;;;4.20;2.08;;;22.40;39.50;;;;;;6273901;27;81359;-59
2023/02/27 04:12:43;;;;;;;4.28;2.05;;;22.40;39.40;;;;;;6265303;27;80865;-59
2023/02/27 04:15:43;;;;;;;4.78;2.33;;;22.40;39.40;;;;;;6275614;27;80753;-59
2023/02/27 04:18:44;;;;;;;2.78;1.83;;;22.50;39.40;;;;;;6276356;27;80205;-59
2023/02/27 04:21:44;;;;;;;3.97;1.90;;;22.50;39.40;;;;;;6273914;27;80376;-59
2023/02/27 04:24:45;;;;;;;4.43;1.75;;;22.50;39.00;;;;;;6274455;27;81411;-60
2023/02/27 04:27:45;;;;;;;3.08;1.50;;;22.60;39.20;;;;;;6274794;27;81950;-60
2023/02/27 04:30:46;;;;;;;2.45;1.60;;;22.70;39.10;;;;;;6276213;27;82265;-60
2023/02/27 04:33:46;;;;;;;2.33;1.50;;;22.70;39.00;;;;;;6279063;27;80336;-59
2023/02/27 04:36:47;;;;;;;4.47;2.08;;;22.80;39.00;;;;;;6280122;27;80867;-59
2023/02/27 04:39:50;;;;;;;2.75;1.40;;;22.80;39.00;;;;;;6289858;27;80260;-59
2023/02/27 04:42:53;;;;;;;3.65;1.77;;;22.90;39.00;;;;;;6278286;27;80922;-59
2023/02/27 04:45:54;;;;;;;3.08;1.50;;;22.90;38.90;;;;;;6278402;27;80363;-60
2023/02/27 04:48:54;;;;;;;2.47;1.40;;;22.90;38.70;;;;;;6277962;27;80699;-60
2023/02/27 04:51:55;;;;;;;2.25;1.30;;;23.00;38.50;;;;;;6278864;27;80352;-57
2023/02/27 04:54:55;;;;;;;1.80;1.23;;;23.00;38.40;;;;;;6278475;27;80916;-58
2023/02/27 04:57:56;;;;;;;2.38;1.30;;;23.00;38.30;;;;;;6275770;27;81210;-60
2023/02/27 05:00:57;;;;;;;3.13;1.70;;;23.00;38.30;;;;;;6274297;27;80230;-60
2023/02/27 05:03:57;;;;;;;2.00;1.20;;;23.00;38.00;;;;;;6277612;27;82584;-59
2023/02/27 05:06:58;;;;;;;1.67;1.25;;;23.00;38.00;;;;;;6276116;27;82623;-60
2023/02/27 05:09:58;;;;;;;1.55;1.00;;;23.00;38.00;;;;;;6271391;27;80712;-60
2023/02/27 05:12:59;;;;;;;2.00;1.20;;;23.10;38.30;;;;;;6270491;27;83039;-58
2023/02/27 05:15:59;;;;;;;2.25;1.40;;;23.10;38.40;;;;;;6276060;27;81292;-60
2023/02/27 05:19:00;;;;;;;2.20;1.20;;;23.10;38.20;;;;;;6271191;27;85002;-62
2023/02/27 05:22:01;;;;;;;4.07;1.20;;;23.10;37.90;;;;;;6263876;27;80655;-59
2023/02/27 05:25:01;;;;;;;1.42;1.08;;;23.10;37.60;;;;;;6261942;27;81344;-61
2023/02/27 05:28:02;;;;;;;3.63;1.90;;;23.10;37.30;;;;;;6259434;27;84866;-62
2023/02/27 05:31:02;;;;;;;1.83;1.27;;;23.10;37.60;;;;;;6263617;27;86352;-63
2023/02/27 05:34:03;;;;;;;3.63;1.30;;;23.10;37.50;;;;;;6265648;27;80960;-62
2023/02/27 05:37:03;;;;;;;2.53;1.10;;;23.10;37.50;;;;;;6269149;27;80911;-66
2023/02/27 05:40:07;;;;;;;7.82;1.70;;;23.10;37.50;;;;;;6267215;27;80850;-61
2023/02/27 05:43:07;;;;;;;2.08;1.55;;;23.10;37.70;;;;;;6267703;27;80674;-59
2023/02/27 05:46:08;;;;;;;3.08;1.58;;;23.10;37.50;;;;;;6270867;27;82176;-57
2023/02/27 05:49:08;;;;;;;2.67;1.83;;;23.20;37.70;;;;;;6270026;27;81239;-57
2023/02/27 05:52:09;;;;;;;3.13;1.58;;;23.20;37.70;;;;;;6252409;27;81478;-63
2023/02/27 05:55:09;;;;;;;2.80;1.40;;;23.20;37.40;;;;;;6272635;27;81676;-53
2023/02/27 05:58:10;;;;;;;2.22;1.35;;;23.20;37.30;;;;;;6262225;27;81234;-53
2023/02/27 06:01:11;;;;;;;5.05;1.42;;;23.20;37.50;;;;;;6264650;27;80779;-63
2023/02/27 06:04:11;;;;;;;5.20;1.60;;;23.20;37.60;;;;;;6273955;27;81038;-62
2023/02/27 06:07:12;;;;;;;3.72;1.95;;;23.20;37.10;;;;;;6266091;27;81309;-67
2023/02/27 06:10:12;;;;;;;4.15;1.55;;;23.20;37.00;;;;;;6267330;27;80544;-61
2023/02/27 06:13:13;;;;;;;2.83;1.42;;;23.20;36.90;;;;;;6255822;27;81603;-60
2023/02/27 06:16:13;;;;;;;2.58;1.45;;;23.10;37.00;;;;;;6244130;27;84032;-60
2023/02/27 06:19:14;;;;;;;2.92;1.38;;;23.10;36.70;;;;;;6246428;27;82362;-59
2023/02/27 06:22:14;;;;;;;3.28;1.73;;;23.10;36.60;;;;;;6232681;27;87270;-60
2023/02/27 06:25:15;;;;;;;5.63;1.80;;;23.10;37.00;;;;;;6268661;27;80802;-58
2023/02/27 06:28:15;;;;;;;9.00;1.65;;;23.10;37.30;;;;;;6257942;27;80795;-62
2023/02/27 06:31:16;;;;;;;2.90;1.42;;;23.00;36.80;;;;;;6185565;27;82312;-61
2023/02/27 06:34:17;;;;;;;4.55;1.73;;;23.00;36.80;;;;;;6261201;27;82343;-62
2023/02/27 06:37:17;;;;;;;3.22;1.85;;;23.00;36.50;;;;;;6256789;27;83233;-65
2023/02/27 06:40:18;;;;;;;3.03;1.55;;;23.00;36.90;;;;;;6264737;27;80433;-63
2023/02/27 06:43:21;;;;;;;3.15;1.88;;;22.90;36.00;;;;;;6270287;27;81742;-62
2023/02/27 06:46:22;;;;;;;4.35;2.40;;;22.90;36.00;;;;;;6265960;27;80811;-61
2023/02/27 06:49:22;;;;;;;7.63;3.03;;;22.90;35.70;;;;;;6262721;27;81387;-61
2023/02/27 06:52:23;;;;;;;8.52;2.67;;;22.90;35.60;;;;;;6273712;27;80305;-61
2023/02/27 06:55:24;;;;;;;8.23;3.25;;;22.90;35.40;;;;;;6260410;27;80911;-63
2023/02/27 06:58:25;;;;;;;8.75;4.25;;;22.80;35.40;;;;;;6258496;27;80301;-62
2023/02/27 07:01:25;;;;;;;11.05;4.60;;;22.80;35.50;;;;;;6260906;27;81746;-59
2023/02/27 07:04:26;;;;;;;8.68;4.10;;;22.80;35.50;;;;;;6249773;27;81207;-64
2023/02/27 07:07:27;;;;;;;12.60;5.30;;;22.80;35.70;;;;;;6240030;27;82447;-64
2023/02/27 07:10:27;;;;;;;11.50;5.05;;;22.70;35.60;;;;;;6268413;27;80757;-69
2023/02/27 07:13:28;;;;;;;10.23;3.97;;;22.70;35.70;;;;;;6268479;27;82171;-62
2023/02/27 07:16:28;;;;;;;10.55;4.45;;;22.70;35.50;;;;;;6269554;27;80434;-59
2023/02/27 07:19:29;;;;;;;9.23;4.93;;;22.70;35.70;;;;;;6267946;27;80979;-59
2023/02/27 07:22:29;;;;;;;10.75;4.40;;;22.60;36.00;;;;;;6251777;27;80220;-58
2023/02/27 07:25:30;;;;;;;11.05;4.57;;;22.60;36.00;;;;;;6221467;27;83218;-58
2023/02/27 07:28:30;;;;;;;9.40;4.03;;;22.60;36.30;;;;;;6250626;27;82248;-63
2023/02/27 07:31:31;;;;;;;9.52;4.38;;;22.60;36.40;;;;;;6267662;27;83101;-62
2023/02/27 07:34:31;;;;;;;8.73;4.32;;;22.50;36.00;;;;;;6260062;27;82267;-61
2023/02/27 07:37:32;;;;;;;9.40;4.43;;;22.50;35.80;;;;;;6265441;27;81015;-60
2023/02/27 07:40:32;;;;;;;9.45;4.05;;;22.50;35.80;;;;;;6243023;27;82746;-60
2023/02/27 07:43:33;;;;;;;10.50;4.10;;;22.50;36.00;;;;;;6240977;27;81049;-58
2023/02/27 07:46:33;;;;;;;7.78;3.38;;;22.50;36.10;;;;;;6253129;27;81520;-59
2023/02/27 07:49:34;;;;;;;6.32;3.53;;;22.50;36.80;;;;;;6264881;27;80701;-56
2023/02/27 07:52:35;;;;;;;7.75;3.75;;;22.50;36.00;;;;;;6253181;27;81530;-58
2023/02/27 07:55:35;;;;;;;7.70;3.55;;;22.50;35.90;;;;;;6262304;27;81029;-57
2023/02/27 07:58:36;;;;;;;9.27;4.07;;;22.50;35.90;;;;;;6256981;27;80204;-57
2023/02/27 08:01:36;;;;;;;8.82;3.67;;;22.50;35.90;;;;;;6262301;27;82797;-56
2023/02/27 08:04:37;;;;;;;8.73;3.30;;;22.50;35.90;;;;;;6257013;27;83537;-58
2023/02/27 08:07:37;;;;;;;8.88;3.40;;;22.50;35.90;;;;;;6258398;27;83793;-57
2023/02/27 08:10:38;;;;;;;6.20;3.22;;;22.40;35.90;;;;;;6243523;27;80943;-58
2023/02/27 08:13:38;;;;;;;5.45;3.47;;;22.50;35.90;;;;;;6266916;27;80905;-58
2023/02/27 08:16:39;;;;;;;4.60;2.67;;;22.50;36.10;;;;;;6260965;27;82236;-55
2023/02/27 08:19:40;;;;;;;4.28;2.83;;;22.50;36.20;;;;;;6263865;27;81604;-58
2023/02/27 08:22:40;;;;;;;7.88;2.90;;;22.50;36.90;;;;;;6264622;27;80459;-56
2023/02/27 08:25:41;;;;;;;6.00;2.67;;;22.50;36.60;;;;;;6243749;27;81930;-57
2023/02/27 08:28:41;;;;;;;5.25;2.78;;;22.50;36.80;;;;;;6266036;27;80626;-56
2023/02/27 08:31:42;;;;;;;6.57;2.92;;;22.50;37.00;;;;;;6262520;27;82547;-56
2023/02/27 08:34:42;;;;;;;5.07;2.80;;;22.50;37.60;;;;;;6256269;27;83641;-54
2023/02/27 08:37:43;;;;;;;6.10;3.05;;;22.50;37.10;;;;;;6254021;27;80908;-58
2023/02/27 08:40:43;;;;;;;4.13;2.28;;;22.60;37.10;;;;;;6254525;27;83697;-56
2023/02/27 08:43:44;;;;;;;6.00;2.88;;;22.60;36.20;;;;;;6246318;27;85590;-57
2023/02/27 08:46:44;;;;;;;5.13;2.60;;;22.70;36.00;;;;;;6248193;27;85421;-56
2023/02/27 08:49:45;;;;;;;4.53;2.35;;;22.70;35.60;;;;;;6258020;27;80923;-57
2023/02/27 08:52:45;;;;;;;4.60;2.40;;;22.70;35.30;;;;;;6259279;27;80401;-58
2023/02/27 08:55:46;;;;;;;4.90;2.25;;;22.80;35.20;;;;;;6258103;27;80933;-57
2023/02/27 08:58:46;;;;;;;5.22;2.38;;;22.80;35.00;;;;;;6241713;27;82914;-58
2023/02/27 09:01:47;;;;;;;4.68;2.95;;;22.90;34.90;;;;;;6261424;27;80849;-57
2023/02/27 09:04:47;;;;;;;3.28;2.17;;;22.90;34.60;;;;;;6257872;27;82363;-64
2023/02/27 09:07:48;;;;;;;4.50;2.30;;;22.90;34.60;;;;;;6253479;27;81164;-57
2023/02/27 09:10:49;;;;;;;3.72;2.30;;;23.00;34.50;;;;;;6250595;27;86177;-55
2023/02/27 09:13:50;;;;;;;3.42;2.00;;;23.00;34.60;;;;;;6252970;27;80331;-54
2023/02/27 09:16:50;;;;;;;3.28;1.92;;;23.10;34.60;;;;;;6250425;27;81431;-56
2023/02/27 09:19:51;;;;;;;3.20;1.95;;;23.10;34.60;;;;;;6253382;27;83591;-55
2023/02/27 09:22:52;;;;;;;4.28;2.13;;;23.20;34.60;;;;;;6257320;27;81597;-62
2023/02/27 09:25:52;;;;;;;3.63;2.25;;;23.20;34.90;;;;;;6255480;27;82330;-63
2023/02/27 09:28:53;;;;;;;4.30;2.50;;;23.30;35.10;;;;;;6253948;27;83116;-63
2023/02/27 09:31:54;;;;;;;3.47;2.10;;;23.30;35.40;;;;;;6261479;27;80740;-64
2023/02/27 09:34:54;;;;;;;7.45;2.17;;;23.30;35.30;;;;;;6251215;27;80917;-60
2023/02/27 09:37:55;;;;;;;4.40;2.63;;;23.30;35.40;;;;;;6254816;27;81130;-62
2023/02/27 09:40:55;;;;;;;4.18;2.50;;;23.40;35.70;;;;;;6244913;27;85521;-63
2023/02/27 09:43:56;;;;;;;3.45;2.13;;;23.40;35.80;;;;;;6249610;27;80820;-62
2023/02/27 09:46:57;;;;;;;3.13;2.00;;;23.40;35.70;;;;;;6258941;27;80944;-61
2023/02/27 09:49:58;;;;;;;3.70;1.90;;;23.40;35.70;;;;;;6251750;27;86735;-60
2023/02/27 09:52:58;;;;;;;2.05;1.80;;;23.50;35.80;;;;;;6255859;27;80823;-62
2023/02/27 09:55:59;;;;;;;3.92;2.00;;;23.50;35.70;;;;;;6252005;27;81438;-62
2023/02/27 09:58:59;;;;;;;3.05;2.13;;;23.50;35.80;;;;;;6257790;27;81397;-61
2023/02/27 10:02:04;;;;;;;6.10;2.17;;;23.50;35.60;;;;;;6258164;27;80989;-62
2023/02/27 10:05:06;;;;;;;10.05;2.55;;;23.50;35.70;;;;;;6250118;27;82860;-60
2023/02/27 10:08:07;;;;;;;6.60;2.22;;;23.50;35.70;;;;;;6259358;27;81065;-62
2023/02/27 10:11:07;;;;;;;4.97;2.47;;;23.50;35.50;;;;;;6245089;27;81259;-62
2023/02/27 10:14:08;;;;;;;9.93;2.47;;;23.60;35.60;;;;;;6258933;27;81467;-67
2023/02/27 10:17:08;;;;;;;4.35;2.28;;;23.50;35.40;;;;;;6250766;27;83330;-64
2023/02/27 10:20:09;;;;;;;3.92;2.10;;;23.50;35.50;;;;;;6262087;27;81104;-61
2023/02/27 10:23:10;;;;;;;6.88;2.03;;;23.50;35.60;;;;;;6248782;27;81644;-63
2023/02/27 10:26:10;;;;;;;4.40;2.33;;;23.50;35.60;;;;;;6257403;27;80583;-64
2023/02/27 10:29:11;;;;;;;5.28;2.10;;;23.50;35.70;;;;;;6271501;27;82286;-67
2023/02/27 10:32:11;;;;;;;5.78;2.55;;;23.40;35.60;;;;;;6250767;27;81355;-67
2023/02/27 10:35:12;;;;;;;9.90;2.25;;;23.40;35.60;;;;;;6261529;27;81557;-65
2023/02/27 10:38:12;;;;;;;4.22;2.17;;;23.40;35.50;;;;;;6265602;27;80444;-67
2023/02/27 10:41:13;;;;;;;5.38;2.30;;;23.30;35.10;;;;;;6266242;27;85255;-66
2023/02/27 10:44:13;;;;;;;5.55;2.70;;;23.30;35.20;;;;;;6268287;27;80453;-66
2023/02/27 10:47:14;;;;;;;8.85;2.58;;;23.30;35.10;;;;;;6264981;27;83559;-66
2023/02/27 10:50:14;;;;;;;3.38;2.05;;;23.30;35.10;;;;;;6265780;27;80389;-66
2023/02/27 10:53:15;;;;;;;2.97;2.08;;;23.20;35.10;;;;;;6258811;27;80594;-55
2023/02/27 10:56:16;;;;;;;6.65;2.40;;;23.20;35.30;;;;;;6264726;27;80966;-50
2023/02/27 10:59:16;;;;;;;4.05;2.50;;;23.10;35.10;;;;;;6265624;27;81559;-54
2023/02/27 11:02:19;;;;;;;3.95;2.35;;;23.10;35.10;;;;;;6249988;27;80894;-53
2023/02/27 11:05:20;;;;;;;5.13;2.60;;;23.10;35.10;;;;;;6248835;27;80266;-56
2023/02/27 11:08:20;;;;;;;7.40;2.63;;;23.10;35.30;;;;;;6261680;27;80798;-55
2023/02/27 11:11:21;;;;;;;3.67;2.55;;;23.10;35.00;;;;;;6255834;27;81262;-56
2023/02/27 11:14:23;;;;;;;11.32;3.15;;;23.10;35.20;;;;;;6268851;27;80807;-55
2023/02/27 11:17:24;;;;;;;7.22;3.35;;;23.10;35.30;;;;;;6265618;27;84023;-56
2023/02/27 11:20:25;;;;;;;7.47;2.50;;;23.00;35.10;;;;;;6267040;27;80261;-59
2023/02/27 11:23:25;;;;;;;10.68;2.92;;;23.00;35.40;;;;;;6264240;27;81158;-58
2023/02/27 11:26:26;;;;;;;5.88;2.85;;;23.00;35.80;;;;;;6257382;27;87576;-56
2023/02/27 11:29:27;;;;;;;7.65;3.13;;;23.00;35.00;;;;;;6266068;27;81640;-57
2023/02/27 11:32:28;;;;;;;4.85;2.85;;;23.00;34.90;;;;;;6270515;27;81645;-62
2023/02/27 11:35:28;;;;;;;6.18;2.75;;;22.90;34.80;;;;;;6264746;27;83445;-62
2023/02/27 11:38:29;;;;;;;6.05;2.63;;;22.90;34.90;;;;;;6246229;27;80356;-62
2023/02/27 11:41:29;;;;;;;4.15;2.70;;;22.90;34.90;;;;;;6260468;27;80340;-62
2023/02/27 11:44:30;;;;;;;5.55;3.08;;;22.90;35.20;;;;;;6268125;27;80704;-61
2023/02/27 11:47:30;;;;;;;8.07;3.00;;;22.90;35.20;;;;;;6264288;27;80959;-62
2023/02/27 11:50:31;;;;;;;6.88;2.47;;;22.90;35.30;;;;;;6262661;27;81580;-62
2023/02/27 11:53:32;;;;;;;5.70;3.10;;;22.80;35.50;;;;;;6262377;27;81088;-62
2023/02/27 11:56:32;;;;;;;9.23;3.95;;;22.80;35.80;;;;;;6254005;27;80399;-61
2023/02/27 11:59:33;;;;;;;16.42;4.38;;;22.80;36.20;;;;;;6248573;27;84859;-61
2023/02/27 12:02:33;;;;;;;13.95;5.15;;;22.80;36.80;;;;;;6256457;27;80490;-62
2023/02/27 12:05:35;;;;;;;14.23;5.60;;;22.80;36.90;;;;;;6248663;27;81632;-61
2023/02/27 12:08:35;;;;;;;17.38;5.43;;;22.80;37.30;;;;;;6254897;27;80897;-61
2023/02/27 12:11:36;;;;;;;17.65;5.45;;;22.80;37.90;;;;;;6253837;27;83823;-62
2023/02/27 12:14:36;;;;;;;13.27;4.95;;;22.80;38.60;;;;;;6263651;27;81839;-63
2023/02/27 12:17:37;;;;;;;10.60;4.32;;;22.80;38.90;;;;;;6261047;27;84863;-62
2023/02/27 12:20:37;;;;;;;18.73;4.97;;;22.80;39.70;;;;;;6255014;27;80621;-63
2023/02/27 12:23:38;;;;;;;16.63;4.90;;;22.80;40.00;;;;;;6257654;27;81223;-62
2023/02/27 12:26:39;;;;;;;11.77;4.57;;;22.80;40.00;;;;;;6256019;27;82198;-63
2023/02/27 12:29:39;;;;;;;9.38;4.22;;;22.80;41.20;;;;;;6266704;27;81800;-62
2023/02/27 12:32:40;;;;;;;14.88;4.28;;;22.80;40.90;;;;;;6244992;27;80256;-62
2023/02/27 12:35:41;;;;;;;8.52;3.67;;;22.90;42.70;;;;;;6268921;27;80419;-61
2023/02/27 12:38:42;;;;;;;10.35;4.18;;;22.80;42.60;;;;;;6265834;27;80952;-61
2023/02/27 12:41:43;;;;;;;10.20;3.83;;;22.80;42.50;;;;;;6265997;27;86555;-64
2023/02/27 12:44:43;;;;;;;8.27;3.90;;;22.90;44.00;;;;;;6254488;27;81710;-61
2023/02/27 12:47:44;;;;;;;7.45;3.60;;;22.90;42.60;;;;;;6259794;27;83604;-62
2023/02/27 12:50:44;;;;;;;8.57;3.53;;;22.90;41.30;;;;;;6270939;27;83160;-62
2023/02/27 12:53:45;;;;;;;6.38;3.50;;;23.00;41.00;;;;;;6262300;27;82171;-61
2023/02/27 12:56:45;;;;;;;9.90;4.03;;;23.00;40.40;;;;;;6265306;27;80746;-62
2023/02/27 12:59:46;;;;;;;6.63;3.60;;;23.10;40.10;;;;;;6269719;27;81428;-62
2023/02/27 13:02:46;;;;;;;7.43;3.13;;;23.10;39.90;;;;;;6251906;27;81719;-68
2023/02/27 13:05:47;;;;;;;18.52;4.20;;;23.20;39.20;;;;;;6254460;27;82109;-63
2023/02/27 13:08:47;;;;;;;7.38;3.33;;;23.20;38.90;;;;;;6260621;27;80568;-64
2023/02/27 13:11:48;;;;;;;8.25;3.97;;;23.20;38.60;;;;;;6259805;27;83412;-62
2023/02/27 13:14:49;;;;;;;5.25;3.10;;;23.20;38.50;;;;;;6265741;27;80887;-63
2023/02/27 13:17:50;;;;;;;8.82;3.33;;;23.30;38.40;;;;;;6271018;27;83135;-62
2023/02/27 13:20:51;;;;;;;7.75;3.92;;;23.30;38.20;;;;;;6257623;27;85524;-62
2023/02/27 13:23:51;;;;;;;5.53;3.35;;;23.30;38.10;;;;;;6268057;27;80214;-66
2023/02/27 13:26:52;;;;;;;8.57;3.30;;;23.30;38.10;;;;;;6265479;27;80666;-63
2023/02/27 13:29:52;;;;;;;9.55;3.33;;;23.30;38.00;;;;;;6262415;27;81181;-65
2023/02/27 13:32:53;;;;;;;7.80;3.50;;;23.30;37.80;;;;;;6258221;27;81165;-63
2023/02/27 13:35:54;;;;;;;7.43;3.58;;;23.30;37.50;;;;;;6256877;27;81613;-63
2023/02/27 13:38:55;;;;;;;6.28;3.20;;;23.30;37.20;;;;;;6263520;27;80586;-61
2023/02/27 13:41:55;;;;;;;6.00;3.08;;;23.30;37.10;;;;;;6264374;27;80713;-62
2023/02/27 13:44:56;;;;;;;6.95;3.25;;;23.30;36.70;;;;;;6273653;27;82804;-62
2023/02/27 13:47:57;;;;;;;6.68;3.15;;;23.40;36.40;;;;;;6268797;27;80958;-62
2023/02/27 13:50:58;;;;;;;6.90;3.60;;;23.30;36.50;;;;;;6243591;27;81922;-62
2023/02/27 13:53:58;;;;;;;5.82;2.75;;;23.40;36.40;;;;;;6269280;27;81033;-62
2023/02/27 13:56:59;;;;;;;4.65;2.97;;;23.40;36.40;;;;;;6264293;27;83307;-55
2023/02/27 13:59:59;;;;;;;6.35;3.65;;;23.40;36.40;;;;;;6254457;27;80770;-55
2023/02/27 14:03:00;;;;;;;7.95;3.70;;;23.30;36.90;;;;;;6256445;27;83090;-51
2023/02/27 14:06:00;;;;;;;6.63;3.17;;;23.30;36.30;;;;;;6265442;27;82074;-52
2023/02/27 14:09:01;;;;;;;5.90;3.53;;;23.30;36.30;;;;;;6268139;27;80254;-53
2023/02/27 14:12:01;;;;;;;6.47;3.58;;;23.30;36.30;;;;;;6259734;27;81550;-52
2023/02/27 14:15:02;;;;;;;5.32;3.30;;;23.30;36.30;;;;;;6272658;27;83347;-52
2023/02/27 14:18:03;;;;;;;5.72;3.10;;;23.20;36.40;;;;;;6263338;27;82539;-52
2023/02/27 14:21:03;;;;;;;5.72;3.05;;;23.20;36.40;;;;;;6268764;27;80939;-55
2023/02/27 14:24:03;;;;;;;6.40;3.22;;;23.20;36.40;;;;;;6265503;27;81536;-54
2023/02/27 14:27:04;;;;;;;5.82;3.40;;;23.20;36.30;;;;;;6256022;27;83289;-53
2023/02/27 14:30:06;;;;;;;5.38;3.30;;;23.20;36.20;;;;;;6263391;27;81422;-55
2023/02/27 14:33:06;;;;;;;5.93;3.70;;;23.10;36.20;;;;;;6268362;27;80101;-55
2023/02/27 14:36:07;;;;;;;8.90;3.30;;;23.10;36.20;;;;;;6250511;27;81025;-53
2023/02/27 14:39:08;;;;;;;58.17;28.08;;;23.10;36.20;;;;;;6271129;27;80892;-54
2023/02/27 14:42:08;;;;;;;157.77;73.43;;;23.10;36.20;;;;;;6252800;27;83198;-57
2023/02/27 14:45:09;;;;;;;190.68;95.75;;;23.00;36.30;;;;;;6264374;27;82998;-55
2023/02/27 14:48:09;;;;;;;220.70;107.20;;;23.00;36.20;;;;;;6261896;27;83342;-55
2023/02/27 14:51:10;;;;;;;282.63;135.38;;;23.00;36.20;;;;;;6254332;27;86588;-56
2023/02/27 14:54:11;;;;;;;311.25;146.60;;;23.00;36.40;;;;;;6260740;27;87358;-53
2023/02/27 14:57:11;;;;;;;310.55;142.52;;;23.00;36.20;;;;;;6259043;27;87121;-54
2023/02/27 15:00:12;;;;;;;272.25;125.82;;;23.00;36.20;;;;;;6257706;27;87394;-54
2023/02/27 15:03:12;;;;;;;211.85;101.85;;;23.00;36.30;;;;;;6256912;27;87230;-53
2023/02/27 15:06:13;;;;;;;180.00;82.95;;;23.00;36.30;;;;;;6260619;27;88423;-53
2023/02/27 15:09:13;;;;;;;164.07;78.03;;;23.00;36.40;;;;;;6259727;27;84155;-55
2023/02/27 15:12:14;;;;;;;149.65;68.65;;;23.00;36.40;;;;;;6247939;27;86043;-65
2023/02/27 15:15:14;;;;;;;138.52;64.13;;;22.90;36.20;;;;;;6261206;27;83447;-63
2023/02/27 15:18:15;;;;;;;120.38;55.08;;;22.90;36.30;;;;;;6261725;27;83902;-62
2023/02/27 15:21:15;;;;;;;103.13;50.08;;;22.90;36.50;;;;;;6263331;27;83367;-65
2023/02/27 15:24:16;;;;;;;99.40;43.63;;;22.90;36.50;;;;;;6256250;27;85007;-62
2023/02/27 15:27:16;;;;;;;84.30;40.13;;;22.90;36.50;;;;;;6257957;27;83238;-63
2023/02/27 15:30:17;;;;;;;71.22;35.58;;;22.90;36.50;;;;;;6265808;27;83463;-64
2023/02/27 15:33:19;;;;;;;70.60;33.10;;;22.90;36.40;;;;;;6261590;27;83603;-64
2023/02/27 15:36:19;;;;;;;66.55;31.38;;;22.80;36.40;;;;;;6261612;27;88070;-61
2023/02/27 15:39:20;;;;;;;63.25;28.83;;;22.80;36.30;;;;;;6239294;27;83143;-63